Time;durP1;ratioP1;P1;durP2;ratioP2;P2;SDS_P1;SDS_P2;PMS_P1;PMS_P2;Temp;Humidity;BMP_temperature;BMP_pressure;BME280_temperature;BME280_humidity;BME280_pressure;Samples;Min_cycle;Max_cycle;Signal;HPM_P1;HPM_P2
2022/07/21 00:01:48;;;;;;;31.55;18.77;;;;;;;23.35;58.51;99481.00;5089708;28;20238;-59
2022/07/21 00:04:16;;;;;;;26.80;16.95;;;;;;;23.39;58.19;99484.22;5089692;28;20278;-59
2022/07/21 00:06:43;;;;;;;24.88;16.98;;;;;;;23.41;58.22;99474.34;5089688;28;20700;-59
2022/07/21 00:09:11;;;;;;;27.08;16.45;;;;;;;23.40;57.83;99473.50;5089706;28;20274;-58
2022/07/21 00:11:38;;;;;;;28.80;15.52;;;;;;;23.29;57.50;99478.00;5089552;28;20390;-59
2022/07/21 00:14:06;;;;;;;25.88;14.43;;;;;;;23.20;57.78;99476.09;5089512;28;20230;-58
2022/07/21 00:16:33;;;;;;;25.30;15.13;;;;;;;23.12;58.19;99466.16;5091524;28;20199;-59
2022/07/21 00:19:00;;;;;;;20.17;12.65;;;;;;;23.04;58.20;99468.56;5089366;28;20305;-58
2022/07/21 00:21:29;;;;;;;19.20;11.60;;;;;;;23.10;58.21;99466.28;5089655;28;20257;-58
2022/07/21 00:23:56;;;;;;;16.25;9.82;;;;;;;23.08;57.82;99470.84;5089924;28;20195;-58
2022/07/21 00:26:23;;;;;;;11.57;8.35;;;;;;;23.07;57.85;99471.81;5089680;28;20761;-59
2022/07/21 00:28:50;;;;;;;10.63;7.20;;;;;;;23.07;57.88;99473.59;5089380;28;20203;-59
2022/07/21 00:31:17;;;;;;;7.68;6.57;;;;;;;23.05;57.68;99465.78;5089317;28;20191;-59
2022/07/21 00:33:44;;;;;;;11.18;5.75;;;;;;;23.07;57.46;99461.22;5089789;28;20195;-59
2022/07/21 00:36:11;;;;;;;8.70;5.63;;;;;;;22.97;57.78;99459.44;5089521;28;20310;-58
2022/07/21 00:38:40;;;;;;;5.60;4.68;;;;;;;22.97;57.53;99459.44;5089427;28;20278;-58
2022/07/21 00:41:06;;;;;;;5.43;4.53;;;;;;;22.96;57.26;99448.00;5089381;28;20560;-59
2022/07/21 00:43:34;;;;;;;4.82;4.43;;;;;;;22.92;57.54;99456.31;5089484;28;20674;-59
2022/07/21 00:46:01;;;;;;;4.32;3.83;;;;;;;22.92;57.53;99461.59;5089050;28;20297;-58
2022/07/21 00:48:28;;;;;;;4.20;3.85;;;;;;;22.88;57.40;99461.03;5088984;28;20238;-59
2022/07/21 00:50:55;;;;;;;4.15;3.58;;;;;;;22.84;57.59;99450.78;5088955;28;20233;-58
2022/07/21 00:53:22;;;;;;;11.90;3.80;;;;;;;22.79;57.71;99445.88;5091309;28;20294;-58
2022/07/21 00:55:50;;;;;;;4.18;3.70;;;;;;;22.77;57.77;99453.94;5093091;28;20681;-59
2022/07/21 00:58:18;;;;;;;4.15;3.80;;;;;;;22.75;58.03;99453.22;5093116;28;20608;-59
2022/07/21 01:00:45;;;;;;;4.25;3.90;;;;;;;22.81;57.82;99446.59;5092739;28;20594;-59
2022/07/21 01:03:12;;;;;;;5.32;3.85;;;;;;;22.79;57.98;99451.19;5092876;28;20202;-58
2022/07/21 01:05:39;;;;;;;4.75;3.70;;;;;;;22.75;58.13;99444.41;5092844;28;20256;-60
2022/07/21 01:08:06;;;;;;;4.43;3.95;;;;;;;22.83;57.72;99452.59;5092671;28;20199;-58
2022/07/21 01:10:33;;;;;;;4.45;3.97;;;;;;;22.74;58.22;99453.31;5092695;28;20195;-58
2022/07/21 01:13:02;;;;;;;4.28;3.97;;;;;;;22.58;58.30;99456.31;5092863;28;20235;-58
2022/07/21 01:15:29;;;;;;;4.72;3.85;;;;;;;22.54;58.59;99454.06;5092804;28;20223;-58
2022/07/21 01:17:56;;;;;;;4.20;3.65;;;;;;;22.54;58.43;99451.41;5092589;28;20202;-59
2022/07/21 01:20:25;;;;;;;4.35;3.65;;;;;;;22.55;58.54;99459.22;5092172;28;20199;-59
2022/07/21 01:22:56;;;;;;;4.03;3.72;;;;;;;22.53;58.35;99465.59;5092327;28;20893;-59
2022/07/21 01:25:24;;;;;;;3.92;3.63;;;;;;;22.53;58.40;99460.31;5092416;28;20714;-58
2022/07/21 01:27:51;;;;;;;4.32;3.70;;;;;;;22.53;58.46;99455.84;5092402;28;20229;-59
2022/07/21 01:30:19;;;;;;;17.88;13.63;;;;;;;22.55;58.55;99453.94;5092601;28;20748;-59
2022/07/21 01:32:46;;;;;;;36.85;30.20;;;;;;;22.63;58.34;99453.31;5092155;28;20227;-59
2022/07/21 01:35:15;;;;;;;9.30;8.43;;;;;;;22.64;57.28;99453.22;5092091;28;20223;-59
2022/07/21 01:37:44;;;;;;;10.73;9.65;;;;;;;22.72;56.95;99450.78;5091804;28;20223;-59
2022/07/21 01:42:58;;;;;;;13.70;12.43;;;;;;;22.67;56.49;99452.13;5092170;28;20305;-59
2022/07/21 01:45:25;;;;;;;7.43;6.47;;;;;;;22.70;55.90;99446.56;5091883;28;20205;-59
2022/07/21 01:47:52;;;;;;;4.50;4.07;;;;;;;22.71;55.86;99438.50;5091751;28;20233;-59
2022/07/21 01:50:21;;;;;;;8.43;5.85;;;;;;;22.72;55.70;99439.34;5091978;28;20203;-59
2022/07/21 01:52:48;;;;;;;6.03;5.53;;;;;;;22.63;55.92;99432.16;5091867;28;20203;-57
2022/07/21 01:55:16;;;;;;;3.75;3.47;;;;;;;22.64;55.74;99441.78;5091985;28;20246;-57
2022/07/21 01:57:43;;;;;;;5.28;4.78;;;;;;;22.53;56.33;99436.50;5091935;28;20195;-58
2022/07/21 02:00:11;;;;;;;5.30;3.88;;;;;;;22.50;56.38;99439.38;5091831;28;20195;-58
2022/07/21 02:02:38;;;;;;;4.85;4.47;;;;;;;22.53;56.77;99440.00;5091700;28;20200;-58
2022/07/21 02:05:06;;;;;;;5.35;3.20;;;;;;;22.47;56.42;99437.81;5091255;28;20201;-59
2022/07/21 02:07:33;;;;;;;6.10;3.53;;;;;;;22.37;56.83;99435.06;5091763;28;20203;-58
2022/07/21 02:10:00;;;;;;;2.88;2.78;;;;;;;22.33;56.67;99438.91;5091355;28;20195;-58
2022/07/21 02:12:28;;;;;;;4.07;3.33;;;;;;;22.32;56.30;99437.25;5091528;28;20648;-59
2022/07/21 02:14:55;;;;;;;6.57;3.47;;;;;;;22.32;56.55;99436.41;5091505;28;20268;-60
2022/07/21 02:17:22;;;;;;;4.80;3.60;;;;;;;22.23;56.50;99427.38;5091411;28;20202;-60
2022/07/21 02:19:49;;;;;;;3.60;3.30;;;;;;;22.20;56.78;99435.53;5091055;28;20195;-58
2022/07/21 02:22:16;;;;;;;3.58;3.38;;;;;;;22.24;56.77;99441.41;5091341;28;20234;-58
2022/07/21 02:24:43;;;;;;;3.97;3.58;;;;;;;22.16;57.23;99436.75;5091613;28;20274;-59
2022/07/21 02:27:10;;;;;;;3.72;3.50;;;;;;;22.06;57.49;99438.41;5091294;28;20309;-59
2022/07/21 02:29:39;;;;;;;3.63;3.35;;;;;;;22.04;57.75;99433.25;5091177;28;20642;-59
2022/07/21 02:32:06;;;;;;;4.25;3.60;;;;;;;21.94;58.32;99436.69;5091075;28;20203;-60
2022/07/21 02:34:33;;;;;;;5.47;3.38;;;;;;;21.81;58.76;99426.19;5091210;28;20278;-58
2022/07/21 02:37:00;;;;;;;4.60;3.38;;;;;;;21.89;59.21;99431.75;5091096;28;20219;-59
2022/07/21 02:39:27;;;;;;;4.30;3.53;;;;;;;21.87;59.45;99435.47;5091004;28;20296;-59
2022/07/21 02:41:54;;;;;;;3.38;2.90;;;;;;;21.80;59.56;99434.25;5091278;28;20671;-59
2022/07/21 02:44:21;;;;;;;3.80;3.50;;;;;;;21.76;59.98;99431.00;5091094;28;20625;-58
2022/07/21 02:46:49;;;;;;;3.40;3.20;;;;;;;21.73;60.09;99424.16;5090751;28;20274;-60
2022/07/21 02:49:16;;;;;;;4.78;3.75;;;;;;;21.64;60.59;99426.66;5090626;28;20272;-59
2022/07/21 02:51:43;;;;;;;3.90;3.42;;;;;;;21.57;61.13;99418.34;5090515;28;20195;-59
2022/07/21 02:54:10;;;;;;;3.55;3.35;;;;;;;21.54;61.75;99423.88;5088633;28;20227;-58
2022/07/21 02:56:38;;;;;;;3.63;3.40;;;;;;;21.49;62.35;99425.16;5089694;28;20227;-59
2022/07/21 02:59:05;;;;;;;5.13;4.10;;;;;;;21.47;62.46;99421.78;5102458;28;20756;-59
2022/07/21 03:01:32;;;;;;;4.32;3.85;;;;;;;21.43;62.77;99421.19;5089919;28;20219;-59
2022/07/21 03:04:01;;;;;;;4.13;3.60;;;;;;;21.36;63.04;99412.88;5090041;28;20664;-59
2022/07/21 03:06:28;;;;;;;5.75;3.65;;;;;;;21.46;62.98;99428.03;5089908;28;20257;-59
2022/07/21 03:08:55;;;;;;;7.60;4.03;;;;;;;21.48;62.87;99423.47;5089960;28;25119;-58
2022/07/21 03:11:22;;;;;;;4.43;4.00;;;;;;;21.48;62.69;99423.47;5089102;28;20312;-59
2022/07/21 03:13:49;;;;;;;3.78;3.58;;;;;;;21.50;62.24;99430.34;5089977;28;20236;-60
2022/07/21 03:16:16;;;;;;;4.68;3.65;;;;;;;21.46;61.94;99420.94;5088623;28;20327;-59
2022/07/21 03:18:43;;;;;;;6.05;4.07;;;;;;;21.42;62.03;99423.94;5090032;28;20240;-58
2022/07/21 03:21:11;;;;;;;6.22;3.80;;;;;;;21.51;62.03;99420.63;5089888;28;20221;-58
2022/07/21 03:23:38;;;;;;;4.05;3.85;;;;;;;21.51;62.06;99426.75;5090012;28;25054;-59
2022/07/21 03:26:05;;;;;;;4.20;3.80;;;;;;;21.62;61.87;99420.66;5089979;28;20691;-60
2022/07/21 03:28:32;;;;;;;4.68;4.38;;;;;;;21.53;62.39;99419.53;5075294;28;20230;-59
2022/07/21 03:30:59;;;;;;;7.55;4.70;;;;;;;21.54;62.70;99420.38;5069451;28;20201;-58
2022/07/21 03:33:26;;;;;;;5.68;5.20;;;;;;;21.51;63.04;99421.44;5072127;28;20660;-59
2022/07/21 03:35:54;;;;;;;8.82;5.35;;;;;;;21.53;62.89;99414.25;5088847;28;20744;-59
2022/07/21 03:38:22;;;;;;;7.95;7.18;;;;;;;21.61;62.99;99419.81;5072299;28;20605;-60
2022/07/21 03:40:49;;;;;;;9.40;8.38;;;;;;;21.64;62.92;99429.31;5071665;28;20195;-60
2022/07/21 03:43:16;;;;;;;13.43;9.77;;;;;;;21.69;62.85;99419.22;5071393;28;20272;-59
2022/07/21 03:45:43;;;;;;;16.38;10.75;;;;;;;21.80;62.40;99421.88;5077437;28;20237;-60
2022/07/21 03:48:11;;;;;;;17.95;11.63;;;;;;;21.99;61.67;99427.47;5069904;28;20312;-58
2022/07/21 03:50:40;;;;;;;19.52;10.75;;;;;;;22.15;60.62;99427.13;5068419;28;20203;-59
2022/07/21 03:53:08;;;;;;;14.55;8.38;;;;;;;22.27;59.63;99431.44;5072736;28;20656;-58
2022/07/21 03:55:36;;;;;;;8.10;6.80;;;;;;;22.30;59.42;99433.88;5077008;28;20751;-59
2022/07/21 03:58:05;;;;;;;6.32;5.55;;;;;;;22.64;58.59;99437.34;5078242;28;20192;-58
2022/07/21 04:00:34;;;;;;;5.32;4.80;;;;;;;23.77;54.98;99425.41;5081964;28;20482;-59
2022/07/21 04:03:01;;;;;;;5.47;4.95;;;;;;;25.26;50.41;99442.34;5071752;28;20638;-59
2022/07/21 04:05:29;;;;;;;7.50;4.85;;;;;;;26.79;46.15;99446.63;5072077;28;20764;-60
2022/07/21 04:07:57;;;;;;;8.07;4.63;;;;;;;27.97;42.71;99453.47;5074826;28;20528;-62
2022/07/21 04:10:26;;;;;;;6.53;4.40;;;;;;;28.93;40.48;99454.13;5083742;28;20233;-59
2022/07/21 04:12:55;;;;;;;5.35;3.72;;;;;;;30.15;38.02;99454.22;5089598;28;20196;-59
2022/07/21 04:15:22;;;;;;;4.50;4.18;;;;;;;31.11;35.96;99462.13;5085943;28;20223;-58
2022/07/21 04:17:49;;;;;;;8.98;4.60;;;;;;;32.18;34.26;99467.31;5089171;28;20682;-58
2022/07/21 04:20:17;;;;;;;9.00;4.55;;;;;;;33.06;32.47;99461.06;5088392;28;20345;-59
2022/07/21 04:22:45;;;;;;;4.90;4.18;;;;;;;34.10;30.85;99464.97;5088945;28;20319;-58
2022/07/21 04:25:13;;;;;;;5.15;4.60;;;;;;;35.02;29.23;99460.09;5088963;28;20613;-58
2022/07/21 04:27:41;;;;;;;9.50;4.55;;;;;;;35.38;28.42;99467.06;5089402;28;20219;-59
2022/07/21 04:30:14;;;;;;;13.15;6.30;;;;;;;35.68;27.87;99466.47;5092881;28;20309;-62
2022/07/21 04:32:41;;;;;;;9.73;7.78;;;;;;;36.41;27.05;99471.03;5092899;28;20777;-58
2022/07/21 04:35:10;;;;;;;14.13;8.82;;;;;;;37.08;26.38;99462.47;5092669;28;20684;-61
2022/07/21 04:37:37;;;;;;;19.25;10.48;;;;;;;37.57;25.85;99466.34;5093191;28;20254;-61
2022/07/21 04:40:07;;;;;;;16.13;12.05;;;;;;;37.90;25.46;99464.25;5093412;28;20199;-61
2022/07/21 04:42:36;;;;;;;20.63;12.95;;;;;;;38.21;25.53;99459.78;5079811;28;20284;-59
2022/07/21 04:45:04;;;;;;;19.38;11.98;;;;;;;38.79;24.57;99465.63;5075081;28;20195;-59
2022/07/21 04:47:32;;;;;;;14.98;11.45;;;;;;;39.26;24.54;99469.41;5082713;28;20265;-58
2022/07/21 04:49:59;;;;;;;20.77;10.45;;;;;;;39.55;24.02;99465.84;5092454;28;20732;-59
2022/07/21 04:52:26;;;;;;;15.82;9.65;;;;;;;39.96;23.34;99471.47;5091807;28;20688;-58
2022/07/21 04:54:53;;;;;;;12.02;9.75;;;;;;;40.61;22.59;99472.16;5091735;28;20290;-59
2022/07/21 04:57:20;;;;;;;14.45;8.57;;;;;;;40.64;22.18;99468.94;5086081;28;20250;-59
2022/07/21 04:59:47;;;;;;;11.82;9.27;;;;;;;40.44;22.60;99457.63;5092687;28;20234;-60
2022/07/21 05:02:14;;;;;;;12.50;7.03;;;;;;;40.43;22.27;99464.94;5090578;28;20283;-59
2022/07/21 05:04:43;;;;;;;6.82;5.20;;;;;;;40.70;22.00;99473.47;5086008;28;20226;-59
2022/07/21 05:07:10;;;;;;;7.72;5.60;;;;;;;41.54;21.42;99469.09;5093065;28;20202;-60
2022/07/21 05:09:38;;;;;;;9.05;5.50;;;;;;;41.83;20.93;99471.75;5092810;28;20222;-59
2022/07/21 05:12:06;;;;;;;8.98;6.22;;;;;;;42.16;21.11;99479.09;5082889;28;20249;-59
2022/07/21 05:14:33;;;;;;;15.65;9.70;;;;;;;42.28;20.70;99479.81;5072753;28;20191;-58
2022/07/21 05:16:59;;;;;;;15.77;10.45;;;;;;;42.27;20.79;99470.81;5072201;28;20219;-58
2022/07/21 05:19:26;;;;;;;11.38;10.15;;;;;;;42.62;20.46;99469.66;5072324;28;20238;-58
2022/07/21 05:21:55;;;;;;;12.10;8.18;;;;;;;42.72;20.21;99472.50;5072484;28;20658;-59
2022/07/21 05:24:22;;;;;;;9.05;8.10;;;;;;;43.14;20.24;99471.91;5072242;28;20292;-59
2022/07/21 05:26:49;;;;;;;5.43;5.00;;;;;;;42.86;20.56;99473.81;5071494;28;20211;-59
2022/07/21 05:29:16;;;;;;;7.65;6.90;;;;;;;41.79;21.33;99470.59;5071429;28;20231;-58
2022/07/21 05:31:44;;;;;;;4.05;3.70;;;;;;;42.46;20.67;99462.34;5071660;28;20229;-59
2022/07/21 05:34:11;;;;;;;8.95;4.65;;;;;;;42.61;21.60;99459.81;5070459;28;20241;-59
2022/07/21 05:36:38;;;;;;;8.18;4.38;;;;;;;43.03;20.17;99473.72;5095611;28;20270;-59
2022/07/21 05:39:06;;;;;;;4.10;3.63;;;;;;;43.31;20.65;99469.94;5091222;28;20205;-59
2022/07/21 05:41:33;;;;;;;4.35;3.70;;;;;;;43.18;20.62;99473.09;5092063;28;20778;-60
2022/07/21 05:44:00;;;;;;;14.30;4.53;;;;;;;43.16;20.26;99467.00;5091122;28;20294;-59
2022/07/21 05:46:27;;;;;;;10.13;4.47;;;;;;;43.03;20.74;99460.03;5091800;28;20197;-59
2022/07/21 05:48:55;;;;;;;16.73;5.00;;;;;;;42.85;20.62;99474.06;5091820;28;20318;-59
2022/07/21 05:51:22;;;;;;;48.78;6.20;;;;;;;42.47;20.82;99466.72;5091833;28;20199;-59
2022/07/21 05:53:49;;;;;;;16.20;4.72;;;;;;;42.87;21.00;99464.53;5092047;28;20195;-59
2022/07/21 05:56:17;;;;;;;7.57;4.18;;;;;;;43.09;20.50;99468.06;5091918;28;20678;-59
2022/07/21 05:58:44;;;;;;;11.23;4.80;;;;;;;42.80;20.72;99465.78;5091831;28;20206;-58
2022/07/21 06:01:12;;;;;;;12.60;4.43;;;;;;;42.56;21.09;99454.28;5091842;28;20230;-59
2022/07/21 06:03:42;;;;;;;8.43;4.05;;;;;;;42.91;21.28;99464.81;5091850;28;20248;-57
2022/07/21 06:06:09;;;;;;;9.93;5.55;;;;;;;42.91;20.93;99464.81;5091709;28;20219;-57
2022/07/21 06:08:39;;;;;;;8.32;4.95;;;;;;;43.45;20.31;99457.50;5091480;28;20195;-57
2022/07/21 06:11:06;;;;;;;11.73;5.28;;;;;;;43.25;20.80;99458.13;5091517;28;20209;-57
2022/07/21 06:13:35;;;;;;;9.38;4.47;;;;;;;42.84;20.65;99450.56;5091760;28;20198;-58
2022/07/21 06:16:03;;;;;;;23.67;4.93;;;;;;;42.34;21.62;99446.88;5091129;28;20282;-57
2022/07/21 06:18:30;;;;;;;10.18;4.40;;;;;;;42.48;21.16;99452.00;5091611;28;20214;-57
2022/07/21 06:20:57;;;;;;;12.65;4.55;;;;;;;42.72;21.37;99442.47;5091452;28;20763;-58
2022/07/21 06:23:24;;;;;;;5.78;3.92;;;;;;;42.53;20.93;99450.19;5086307;28;20190;-58
2022/07/21 06:25:52;;;;;;;11.73;4.50;;;;;;;41.66;21.36;99450.75;5089659;28;20683;-59
2022/07/21 06:28:19;;;;;;;9.38;5.00;;;;;;;41.29;21.45;99435.94;5091951;28;20202;-59
2022/07/21 06:30:48;;;;;;;7.13;3.90;;;;;;;40.67;22.51;99435.78;5091886;28;20195;-59
2022/07/21 06:33:15;;;;;;;11.73;4.57;;;;;;;40.42;22.29;99437.97;5091760;28;20198;-58
2022/07/21 06:35:42;;;;;;;7.95;3.80;;;;;;;40.53;22.18;99426.25;5091648;28;20210;-60
2022/07/21 06:38:10;;;;;;;12.38;4.32;;;;;;;40.55;21.82;99426.84;5091398;28;20727;-59
2022/07/21 06:40:37;;;;;;;10.80;4.68;;;;;;;40.59;21.61;99428.03;5090968;28;20306;-58
2022/07/21 06:43:04;;;;;;;4.90;4.53;;;;;;;41.10;22.20;99429.00;5090672;28;20238;-58
2022/07/21 06:45:31;;;;;;;6.63;3.70;;;;;;;41.07;21.13;99424.06;5090053;28;20289;-58
2022/07/21 06:48:06;;;;;;;23.10;4.60;;;;;;;40.76;20.98;99434.38;5089696;28;20229;-60
2022/07/21 06:50:33;;;;;;;11.88;5.32;;;;;;;40.72;21.14;99416.88;5089749;28;20276;-60
2022/07/21 06:53:00;;;;;;;8.77;4.68;;;;;;;40.31;21.22;99415.19;5089671;28;20683;-58
2022/07/21 06:55:27;;;;;;;11.10;5.47;;;;;;;40.39;22.97;99411.28;5075942;28;20195;-59
2022/07/21 06:57:54;;;;;;;6.90;4.07;;;;;;;40.04;22.13;99412.13;5070469;28;20305;-59
2022/07/21 07:00:21;;;;;;;11.88;5.28;;;;;;;39.29;22.08;99408.34;5069680;28;20719;-60
2022/07/21 07:02:48;;;;;;;11.38;6.32;;;;;;;38.64;22.80;99402.78;5070298;28;20298;-60
2022/07/21 07:05:16;;;;;;;9.88;5.00;;;;;;;38.91;22.77;99403.25;5070096;28;20249;-60
2022/07/21 07:07:44;;;;;;;33.60;7.70;;;;;;;38.64;23.27;99405.50;5070107;28;20325;-60
2022/07/21 07:10:12;;;;;;;9.40;5.38;;;;;;;38.52;23.44;99394.53;5070133;28;20198;-60
2022/07/21 07:12:39;;;;;;;7.93;4.50;;;;;;;38.03;23.81;99396.34;5069938;28;20192;-60
2022/07/21 07:15:07;;;;;;;5.32;4.63;;;;;;;37.84;24.22;99391.13;5070001;28;20209;-59
2022/07/21 07:17:34;;;;;;;12.80;4.90;;;;;;;37.53;24.53;99383.88;5069934;28;20245;-59
2022/07/21 07:20:01;;;;;;;9.38;4.22;;;;;;;37.61;24.16;99389.00;5069822;28;20639;-60
2022/07/21 07:22:30;;;;;;;11.75;5.28;;;;;;;37.73;24.04;99384.56;5069872;28;20282;-59
2022/07/21 07:24:56;;;;;;;12.52;5.60;;;;;;;37.99;24.62;99378.03;5070053;28;20755;-60
2022/07/21 07:27:23;;;;;;;7.30;5.38;;;;;;;38.56;24.30;99384.94;5069910;28;20285;-60
2022/07/21 07:29:51;;;;;;;10.75;5.32;;;;;;;38.68;23.95;99372.25;5069852;28;20282;-58
2022/07/21 07:32:18;;;;;;;12.50;4.70;;;;;;;38.69;23.75;99383.94;5069784;28;20200;-58
2022/07/21 07:34:45;;;;;;;8.73;4.68;;;;;;;39.13;23.39;99380.00;5069726;28;20253;-58
2022/07/21 07:37:12;;;;;;;13.15;5.05;;;;;;;39.78;22.82;99382.69;5069624;28;20262;-58
2022/07/21 07:39:40;;;;;;;8.20;5.07;;;;;;;40.01;22.59;99379.16;5069544;28;20235;-58
2022/07/21 07:42:07;;;;;;;9.88;4.93;;;;;;;39.81;22.68;99385.75;5069881;28;20195;-59
2022/07/21 07:44:34;;;;;;;14.63;5.82;;;;;;;40.04;22.63;99370.53;5069676;28;20195;-58
2022/07/21 07:47:02;;;;;;;10.38;4.07;;;;;;;40.12;22.00;99379.13;5069335;28;20322;-57
2022/07/21 07:49:30;;;;;;;8.52;4.35;;;;;;;40.09;22.32;99382.31;5071574;28;20198;-57
2022/07/21 07:51:57;;;;;;;13.20;4.70;;;;;;;40.82;21.49;99384.41;5110346;28;20280;-57
2022/07/21 07:54:24;;;;;;;8.60;4.55;;;;;;;40.95;21.28;99375.13;5100375;28;20273;-57
2022/07/21 07:56:52;;;;;;;11.70;4.53;;;;;;;41.06;21.26;99370.69;5089911;28;20319;-58
2022/07/21 07:59:19;;;;;;;8.60;4.25;;;;;;;41.67;20.59;99370.66;5089777;28;20297;-59
2022/07/21 08:01:46;;;;;;;8.48;4.45;;;;;;;42.01;20.36;99379.63;5089456;28;20290;-60
2022/07/21 08:04:15;;;;;;;9.75;4.53;;;;;;;42.54;20.12;99364.50;5087985;28;20583;-60
2022/07/21 08:06:42;;;;;;;8.15;4.10;;;;;;;42.79;19.64;99376.78;5069287;28;20227;-59
2022/07/21 08:09:09;;;;;;;5.22;4.03;;;;;;;42.92;19.91;99365.44;5069240;28;20700;-60
2022/07/21 08:11:36;;;;;;;5.53;3.97;;;;;;;43.38;18.97;99372.16;5069086;28;20222;-59
2022/07/21 08:14:05;;;;;;;9.18;4.43;;;;;;;43.22;19.35;99373.13;5069178;28;20270;-60
2022/07/21 08:16:32;;;;;;;3.72;3.42;;;;;;;42.24;19.70;99359.44;5069552;28;20223;-60
2022/07/21 08:18:59;;;;;;;4.32;3.92;;;;;;;43.13;19.44;99371.91;5068824;28;20249;-59
2022/07/21 08:21:30;;;;;;;8.02;4.28;;;;;;;43.53;18.75;99360.53;5067755;28;20302;-59
2022/07/21 08:23:57;;;;;;;13.23;4.50;;;;;;;43.68;18.88;99364.19;5068307;28;20197;-60
2022/07/21 08:26:25;;;;;;;4.15;3.75;;;;;;;43.60;19.15;99351.03;5069362;28;20201;-59
2022/07/21 08:28:52;;;;;;;10.23;4.35;;;;;;;43.86;18.82;99360.22;5069157;28;20647;-59
2022/07/21 08:31:20;;;;;;;22.90;4.43;;;;;;;43.90;19.23;99353.13;5069458;28;20613;-60
2022/07/21 08:33:47;;;;;;;6.57;3.67;;;;;;;43.74;18.93;99357.69;5069297;28;20234;-60
2022/07/21 08:36:14;;;;;;;3.97;3.67;;;;;;;43.75;19.09;99358.50;5074569;28;20195;-58
2022/07/21 08:38:41;;;;;;;12.13;8.50;;;;;;;43.07;19.30;99355.50;5083776;28;20599;-59
2022/07/21 08:41:08;;;;;;;7.55;6.78;;;;;;;42.45;19.95;99349.63;5089334;28;20199;-59
2022/07/21 08:43:36;;;;;;;6.35;4.10;;;;;;;42.30;20.51;99339.34;5089261;28;20975;-59
2022/07/21 08:46:03;;;;;;;5.05;3.78;;;;;;;41.62;20.76;99345.22;5082698;28;20214;-59
2022/07/21 08:48:33;;;;;;;10.48;3.90;;;;;;;41.38;21.31;99338.28;5074327;28;20604;-60
2022/07/21 08:51:00;;;;;;;6.65;2.95;;;;;;;41.36;21.14;99338.53;5069130;28;20196;-60
2022/07/21 08:53:28;;;;;;;7.53;3.30;;;;;;;41.17;21.46;99340.69;5069586;28;20205;-60
2022/07/21 08:55:55;;;;;;;6.55;3.20;;;;;;;40.54;21.63;99330.78;5068908;28;20199;-60
2022/07/21 08:58:22;;;;;;;3.53;3.33;;;;;;;40.24;21.90;99336.44;5068900;28;20223;-60
2022/07/21 09:00:51;;;;;;;6.32;4.18;;;;;;;40.36;22.07;99330.97;5069198;28;20203;-60
2022/07/21 09:03:19;;;;;;;8.30;4.28;;;;;;;40.40;22.15;99325.88;5068917;28;20202;-59
2022/07/21 09:06:06;;;;;;;7.97;3.10;;;;;;;40.41;22.09;99322.09;5069124;28;20203;-60
2022/07/21 09:08:35;;;;;;;3.50;3.30;;;;;;;40.30;22.24;99317.53;5068779;28;20645;-60
2022/07/21 09:11:10;;;;;;;5.25;4.68;;;;;;;40.16;22.25;99308.78;5069205;28;20206;-59
2022/07/21 09:13:37;;;;;;;3.90;3.60;;;;;;;40.05;22.25;99315.91;5068977;28;20582;-60
2022/07/21 09:16:05;;;;;;;2.90;2.70;;;;;;;40.28;21.69;99311.50;5071936;28;20593;-60
2022/07/21 09:18:32;;;;;;;3.80;3.50;;;;;;;40.29;22.01;99302.28;5072272;28;20216;-60
2022/07/21 09:21:01;;;;;;;3.75;3.53;;;;;;;40.24;22.16;99311.13;5072239;28;20203;-60
2022/07/21 09:23:29;;;;;;;4.75;3.53;;;;;;;40.06;22.37;99309.41;5072460;28;20204;-60
2022/07/21 09:25:59;;;;;;;3.83;3.58;;;;;;;40.22;21.89;99307.81;5072482;28;20691;-62
2022/07/21 09:28:27;;;;;;;6.07;4.18;;;;;;;40.13;21.67;99299.22;5083399;28;20238;-57
2022/07/21 09:30:59;;;;;;;3.40;3.00;;;;;;;40.44;21.37;99302.56;5092379;28;20281;-59
2022/07/21 09:33:31;;;;;;;4.10;3.20;;;;;;;40.37;21.44;99286.38;5092094;28;20195;-57
2022/07/21 09:36:03;;;;;;;3.17;2.97;;;;;;;40.26;21.40;99288.06;5092684;28;20230;-58
2022/07/21 09:38:32;;;;;;;3.17;2.92;;;;;;;40.36;21.28;99286.63;5092286;28;20218;-58
2022/07/21 09:41:10;;;;;;;5.40;3.20;;;;;;;40.67;21.20;99291.56;5092304;28;20205;-57
2022/07/21 09:43:42;;;;;;;6.03;3.47;;;;;;;40.73;21.47;99298.78;5092104;28;20205;-59
2022/07/21 09:46:17;;;;;;;4.15;2.97;;;;;;;40.53;20.90;99290.22;5092239;28;20221;-59
2022/07/21 09:48:46;;;;;;;7.25;3.88;;;;;;;40.67;20.98;99297.00;5091924;28;20631;-59
2022/07/21 09:51:32;;;;;;;5.97;3.30;;;;;;;40.57;20.66;99289.47;5092154;28;20685;-59
2022/07/21 09:54:01;;;;;;;7.65;3.35;;;;;;;40.41;21.24;99284.03;5092188;28;20290;-60
2022/07/21 09:56:31;;;;;;;4.35;3.10;;;;;;;40.43;20.65;99282.69;5091735;28;20199;-60
2022/07/21 09:58:59;;;;;;;4.65;3.17;;;;;;;40.71;20.96;99290.03;5091851;28;20225;-60
2022/07/21 10:01:27;;;;;;;4.20;3.40;;;;;;;40.81;20.97;99290.22;5092004;28;20202;-59
2022/07/21 10:03:55;;;;;;;8.13;3.50;;;;;;;40.17;22.04;99278.66;5091834;28;20208;-58
2022/07/21 10:06:27;;;;;;;3.55;3.40;;;;;;;39.91;21.73;99274.56;5091734;28;20590;-59
2022/07/21 10:08:57;;;;;;;3.35;3.15;;;;;;;39.49;22.31;99271.19;5091554;28;20282;-58
2022/07/21 10:11:24;;;;;;;6.05;5.32;;;;;;;39.30;22.23;99271.50;5091553;28;20206;-58
2022/07/21 10:13:51;;;;;;;7.05;6.25;;;;;;;39.55;22.66;99270.22;5091590;28;20206;-59
2022/07/21 10:16:19;;;;;;;7.32;5.25;;;;;;;39.64;22.63;99259.00;5091519;28;20187;-59
2022/07/21 10:18:59;;;;;;;4.78;4.20;;;;;;;39.28;22.34;99260.88;5090865;28;20226;-58
2022/07/21 10:21:36;;;;;;;3.63;3.30;;;;;;;38.57;22.84;99258.28;5070140;28;20232;-59
2022/07/21 10:24:05;;;;;;;3.35;3.20;;;;;;;38.29;23.65;99251.53;5070432;28;20197;-59
2022/07/21 10:26:32;;;;;;;4.60;3.47;;;;;;;38.31;23.42;99249.44;5069446;28;20573;-59
2022/07/21 10:28:59;;;;;;;3.95;3.60;;;;;;;38.20;24.09;99242.09;5070501;28;20196;-58
2022/07/21 10:31:28;;;;;;;8.13;3.85;;;;;;;38.43;23.85;99239.47;5070944;28;20207;-59
2022/07/21 10:33:58;;;;;;;5.43;3.90;;;;;;;38.40;23.96;99231.78;5070773;28;20206;-59
2022/07/21 10:36:43;;;;;;;4.47;3.63;;;;;;;38.31;23.78;99235.88;5070843;28;20290;-59
2022/07/21 10:39:25;;;;;;;3.72;3.50;;;;;;;38.27;23.89;99225.72;5070843;28;20226;-59
2022/07/21 10:41:54;;;;;;;6.85;3.90;;;;;;;38.25;23.62;99230.56;5070679;28;20199;-58
2022/07/21 10:44:42;;;;;;;3.47;3.17;;;;;;;37.85;23.62;99228.31;5070532;28;20199;-59
2022/07/21 10:47:10;;;;;;;3.42;3.33;;;;;;;37.65;23.66;99206.06;5070446;28;20227;-60
2022/07/21 10:49:52;;;;;;;3.80;3.60;;;;;;;37.24;24.52;99212.13;5070605;28;20187;-59
2022/07/21 10:53:00;;;;;;;8.77;8.18;;;;;;;37.15;24.50;99208.00;5071000;28;20206;-60
2022/07/21 10:55:30;;;;;;;5.25;4.32;;;;;;;37.14;24.31;99209.88;5070719;28;20282;-59
2022/07/21 10:58:16;;;;;;;5.55;3.90;;;;;;;37.16;24.43;99205.09;5070456;28;20219;-60
2022/07/21 11:00:49;;;;;;;5.13;3.70;;;;;;;37.17;24.45;99200.53;5070243;28;20218;-59
2022/07/21 11:03:20;;;;;;;5.05;3.40;;;;;;;37.06;24.47;99210.19;5070287;28;20235;-57
2022/07/21 11:06:21;;;;;;;3.83;3.53;;;;;;;37.11;25.01;99201.41;5070381;28;20641;-57
2022/07/21 11:08:50;;;;;;;7.63;3.35;;;;;;;37.02;24.75;99203.56;5070196;28;20190;-58
2022/07/21 11:11:20;;;;;;;3.88;3.67;;;;;;;36.91;24.83;99201.59;5070076;28;20602;-56
2022/07/21 11:14:05;;;;;;;9.15;3.30;;;;;;;36.54;25.06;99189.78;5070171;28;20210;-58
2022/07/21 11:17:08;;;;;;;4.47;2.95;;;;;;;36.56;24.66;99193.09;5070253;28;20296;-57
2022/07/21 11:19:38;;;;;;;5.72;3.33;;;;;;;36.51;25.08;99190.22;5070081;28;20230;-57
2022/07/21 11:22:09;;;;;;;11.63;3.70;;;;;;;36.47;25.10;99187.13;5070677;28;20200;-57
2022/07/21 11:24:36;;;;;;;3.42;3.10;;;;;;;36.43;25.01;99188.63;5070096;28;20206;-56
2022/07/21 11:27:06;;;;;;;6.15;3.20;;;;;;;36.40;25.28;99182.81;5070015;28;20557;-59
2022/07/21 11:29:34;;;;;;;4.53;3.95;;;;;;;36.51;25.41;99176.69;5069829;28;20196;-59
2022/07/21 11:32:02;;;;;;;3.83;3.40;;;;;;;36.30;25.29;99189.53;5069804;28;20206;-60
2022/07/21 11:34:41;;;;;;;3.80;3.50;;;;;;;36.31;25.46;99183.09;5069707;28;20843;-57
2022/07/21 11:37:09;;;;;;;9.77;4.90;;;;;;;36.22;25.70;99192.50;5097532;28;20267;-58
2022/07/21 11:39:36;;;;;;;4.47;3.40;;;;;;;36.27;25.55;99183.72;5089895;28;20229;-57
2022/07/21 11:42:06;;;;;;;7.90;4.10;;;;;;;36.49;25.42;99176.91;5089925;28;20191;-57